hubub.com alexa rank chart, hubub.com alexa rank daily changes

hubub.com alexa rank chart, hubub.com alexa rank daily changes

hubub.com
Actual rank:
647 502

RANK HISTORY

Date Rank Diff
2017/01/22 647 502 +24 954
2017/01/21 622 548 +11 673
2017/01/20 610 875 +5 064
2017/01/19 605 811 +31 078
2017/01/18 574 733 +11 153
2017/01/17 563 580 +10 515
2017/01/16 553 065 +18 703
2017/01/15 534 362 -158
2017/01/14 534 520 +6 624
2017/01/13 527 896 +3 816
2017/01/12 524 080 -23
2017/01/11 524 103 -2 304
2017/01/10 526 407 +18 163
2017/01/09 508 244 +5 527
2017/01/08 502 717 +581
2017/01/07 502 136 +3 541
2017/01/06 498 595 -15 923
2017/01/05 514 518 +3 584
2017/01/04 510 934 +6 472
2017/01/03 504 462 +18 475
2017/01/02 485 987 +5 981
2017/01/01 480 006 -1 492
2016/12/31 481 498 -6 057
2016/12/30 487 555 +12 180
2016/12/29 475 375 -867
2016/12/28 476 242 -1 332
2016/12/27 477 574 +6 053
2016/12/26 471 521 -9 503
2016/12/25 481 024 +1 430
2016/12/24 479 594 -15 456
2016/12/23 495 050 -16 871
2016/12/22 511 921 -24 002
2016/12/21 535 923 -8 004
2016/12/20 543 927 +30 876
2016/12/19 513 051 -19 969
2016/12/18 533 020 -3 712
2016/12/17 536 732 +4 145
2016/12/16 532 587 +15 959
2016/12/15 516 628 -13 047
2016/12/14 529 675 -14 024
2016/12/13 543 699 +1 963
2016/12/12 541 736 -727
2016/12/11 542 463 +8 020
2016/12/10 534 443 -23 577
2016/12/09 558 020 -6 535
2016/12/08 564 555 +6 090
2016/12/07 558 465 +3 488
2016/12/06 554 977 +11 980
2016/12/05 542 997 +2 397
2016/12/04 540 600 -6 494
2016/12/02 547 094 +3 076
2016/12/01 544 018 -22 468
2016/11/30 566 486 +1 199
2016/11/29 565 287 -14 625
2016/11/28 579 912 -1 117
2016/11/27 581 029 -4 508
2016/11/26 585 537 -7 840
2016/11/25 593 377 -24 833
2016/11/24 618 210 -24 337
2016/11/23 642 547

WIDGET FOR YOUR SITE

DOMAINS WITH THE NEAREST RANK

Domain Rank
homensquesecuidam.com 647 497
mi-il.co.il 647 498
lieferservice.de 647 499
garnish.tv 647 500
mytwinks.com 647 501
hubub.com 647 502
glamusha.ru 647 503
sciencewithmrshrout.wikispaces.com 647 504
pl2008.com 647 505
pupilla.hr 647 506
waypedia.com 647 507

DOMAINS WITH THE NEAREST RANK BY TLD .com

Domain Rank
sgchs.com 647 488
iamgstore.com 647 494
mundodoscachorros.com 647 496
homensquesecuidam.com 647 497
mytwinks.com 647 501
hubub.com 647 502
pl2008.com 647 505
waypedia.com 647 507
musclegirlzlive.com 647 508
pic4fap.com 647 509
mundo-surf.com 647 510